<?xml version="1.0" encoding="UTF-8" standalone="no" ?>
<gpx xmlns="http://www.topografix.com/GPX/1/1" xmlns:xsi="http://www.w3.org/2001/XMLSchema-instance" xsi:schemaLocation="http://www.topografix.com/GPX/1/1 http://www.topografix.com/GPX/1/1/gpx.xsd" version="1.1" creator="VisuGPX - https://www.visugpx.com">
  <metadata>
    <name>Aix parc de la Torse - Lavoir de grand mère</name>
    <desc><![CDATA[Sans difficulté.]]></desc>
  </metadata>
  <trk>
    <name><![CDATA[Torse - Lavoir de grand mère]]></name>
    <trkseg>
      <trkpt lat="43.52056" lon="5.46671">
        <ele>173</ele>
        <time>2020-02-04T12:56:37Z</time>
      </trkpt>
      <trkpt lat="43.52067" lon="5.4667">
        <ele>175</ele>
        <time>2020-02-04T13:00:14Z</time>
      </trkpt>
      <trkpt lat="43.52077" lon="5.46671">
        <ele>174</ele>
        <time>2020-02-04T13:00:32Z</time>
      </trkpt>
      <trkpt lat="43.52073" lon="5.46657">
        <ele>176</ele>
        <time>2020-02-04T13:00:51Z</time>
      </trkpt>
      <trkpt lat="43.52067" lon="5.46646">
        <ele>177</ele>
        <time>2020-02-04T13:01:01Z</time>
      </trkpt>
      <trkpt lat="43.52061" lon="5.46636">
        <ele>176</ele>
        <time>2020-02-04T13:01:10Z</time>
      </trkpt>
      <trkpt lat="43.52054" lon="5.46629">
        <ele>174</ele>
        <time>2020-02-04T13:01:17Z</time>
      </trkpt>
      <trkpt lat="43.52046" lon="5.46622">
        <ele>177</ele>
        <time>2020-02-04T13:01:29Z</time>
      </trkpt>
      <trkpt lat="43.52038" lon="5.46615">
        <ele>176</ele>
        <time>2020-02-04T13:01:38Z</time>
      </trkpt>
      <trkpt lat="43.52031" lon="5.46606">
        <ele>174</ele>
        <time>2020-02-04T13:01:47Z</time>
      </trkpt>
      <trkpt lat="43.52023" lon="5.46601">
        <ele>174</ele>
        <time>2020-02-04T13:01:55Z</time>
      </trkpt>
      <trkpt lat="43.52014" lon="5.46595">
        <ele>174</ele>
        <time>2020-02-04T13:02:04Z</time>
      </trkpt>
      <trkpt lat="43.52004" lon="5.4659">
        <ele>175</ele>
        <time>2020-02-04T13:02:14Z</time>
      </trkpt>
      <trkpt lat="43.51996" lon="5.46583">
        <ele>176</ele>
        <time>2020-02-04T13:02:22Z</time>
      </trkpt>
      <trkpt lat="43.51987" lon="5.46576">
        <ele>176</ele>
        <time>2020-02-04T13:02:30Z</time>
      </trkpt>
      <trkpt lat="43.51978" lon="5.46572">
        <ele>175</ele>
        <time>2020-02-04T13:02:40Z</time>
      </trkpt>
      <trkpt lat="43.51969" lon="5.4657">
        <ele>173</ele>
        <time>2020-02-04T13:02:51Z</time>
      </trkpt>
      <trkpt lat="43.5196" lon="5.46568">
        <ele>173</ele>
        <time>2020-02-04T13:02:59Z</time>
      </trkpt>
      <trkpt lat="43.51951" lon="5.46563">
        <ele>174</ele>
        <time>2020-02-04T13:03:08Z</time>
      </trkpt>
      <trkpt lat="43.51948" lon="5.46548">
        <ele>177</ele>
        <time>2020-02-04T13:03:24Z</time>
      </trkpt>
      <trkpt lat="43.51941" lon="5.46538">
        <ele>174</ele>
        <time>2020-02-04T13:03:32Z</time>
      </trkpt>
      <trkpt lat="43.51932" lon="5.46533">
        <ele>175</ele>
        <time>2020-02-04T13:03:41Z</time>
      </trkpt>
      <trkpt lat="43.51926" lon="5.46525">
        <ele>175</ele>
        <time>2020-02-04T13:03:52Z</time>
      </trkpt>
      <trkpt lat="43.51917" lon="5.46517">
        <ele>174</ele>
        <time>2020-02-04T13:04:03Z</time>
      </trkpt>
      <trkpt lat="43.51908" lon="5.4651">
        <ele>175</ele>
        <time>2020-02-04T13:04:15Z</time>
      </trkpt>
      <trkpt lat="43.51906" lon="5.46498">
        <ele>177</ele>
        <time>2020-02-04T13:04:26Z</time>
      </trkpt>
      <trkpt lat="43.51904" lon="5.46484">
        <ele>176</ele>
        <time>2020-02-04T13:04:35Z</time>
      </trkpt>
      <trkpt lat="43.51903" lon="5.46471">
        <ele>176</ele>
        <time>2020-02-04T13:04:45Z</time>
      </trkpt>
      <trkpt lat="43.51901" lon="5.46458">
        <ele>178</ele>
        <time>2020-02-04T13:04:55Z</time>
      </trkpt>
      <trkpt lat="43.51895" lon="5.46447">
        <ele>178</ele>
        <time>2020-02-04T13:05:02Z</time>
      </trkpt>
      <trkpt lat="43.51889" lon="5.46435">
        <ele>178</ele>
        <time>2020-02-04T13:05:11Z</time>
      </trkpt>
      <trkpt lat="43.51884" lon="5.46425">
        <ele>177</ele>
        <time>2020-02-04T13:05:19Z</time>
      </trkpt>
      <trkpt lat="43.51879" lon="5.46413">
        <ele>176</ele>
        <time>2020-02-04T13:05:28Z</time>
      </trkpt>
      <trkpt lat="43.51873" lon="5.46404">
        <ele>174</ele>
        <time>2020-02-04T13:05:39Z</time>
      </trkpt>
      <trkpt lat="43.51869" lon="5.46391">
        <ele>173</ele>
        <time>2020-02-04T13:05:51Z</time>
      </trkpt>
      <trkpt lat="43.51863" lon="5.4638">
        <ele>173</ele>
        <time>2020-02-04T13:06:01Z</time>
      </trkpt>
      <trkpt lat="43.51859" lon="5.46368">
        <ele>177</ele>
        <time>2020-02-04T13:06:13Z</time>
      </trkpt>
      <trkpt lat="43.51858" lon="5.46381">
        <ele>170</ele>
        <time>2020-02-04T13:07:46Z</time>
      </trkpt>
      <trkpt lat="43.5186" lon="5.46393">
        <ele>168</ele>
        <time>2020-02-04T13:07:57Z</time>
      </trkpt>
      <trkpt lat="43.51866" lon="5.46404">
        <ele>166</ele>
        <time>2020-02-04T13:08:08Z</time>
      </trkpt>
      <trkpt lat="43.51871" lon="5.46414">
        <ele>165</ele>
        <time>2020-02-04T13:08:20Z</time>
      </trkpt>
      <trkpt lat="43.51876" lon="5.46426">
        <ele>166</ele>
        <time>2020-02-04T13:08:32Z</time>
      </trkpt>
      <trkpt lat="43.51881" lon="5.46436">
        <ele>166</ele>
        <time>2020-02-04T13:08:42Z</time>
      </trkpt>
      <trkpt lat="43.51887" lon="5.46446">
        <ele>163</ele>
        <time>2020-02-04T13:08:53Z</time>
      </trkpt>
      <trkpt lat="43.51893" lon="5.46458">
        <ele>163</ele>
        <time>2020-02-04T13:09:06Z</time>
      </trkpt>
      <trkpt lat="43.51896" lon="5.46471">
        <ele>165</ele>
        <time>2020-02-04T13:09:21Z</time>
      </trkpt>
      <trkpt lat="43.51897" lon="5.46484">
        <ele>165</ele>
        <time>2020-02-04T13:09:32Z</time>
      </trkpt>
      <trkpt lat="43.51899" lon="5.46497">
        <ele>166</ele>
        <time>2020-02-04T13:09:42Z</time>
      </trkpt>
      <trkpt lat="43.51902" lon="5.46509">
        <ele>167</ele>
        <time>2020-02-04T13:09:53Z</time>
      </trkpt>
      <trkpt lat="43.51909" lon="5.46519">
        <ele>166</ele>
        <time>2020-02-04T13:10:02Z</time>
      </trkpt>
      <trkpt lat="43.51917" lon="5.46526">
        <ele>165</ele>
        <time>2020-02-04T13:10:13Z</time>
      </trkpt>
      <trkpt lat="43.51926" lon="5.4653">
        <ele>163</ele>
        <time>2020-02-04T13:10:23Z</time>
      </trkpt>
      <trkpt lat="43.51934" lon="5.46536">
        <ele>164</ele>
        <time>2020-02-04T13:10:32Z</time>
      </trkpt>
      <trkpt lat="43.51942" lon="5.46543">
        <ele>166</ele>
        <time>2020-02-04T13:10:42Z</time>
      </trkpt>
      <trkpt lat="43.5195" lon="5.46548">
        <ele>165</ele>
        <time>2020-02-04T13:10:54Z</time>
      </trkpt>
      <trkpt lat="43.51959" lon="5.4655">
        <ele>166</ele>
        <time>2020-02-04T13:11:04Z</time>
      </trkpt>
      <trkpt lat="43.51971" lon="5.46552">
        <ele>167</ele>
        <time>2020-02-04T13:11:18Z</time>
      </trkpt>
      <trkpt lat="43.51983" lon="5.46552">
        <ele>168</ele>
        <time>2020-02-04T13:11:30Z</time>
      </trkpt>
      <trkpt lat="43.51992" lon="5.46556">
        <ele>166</ele>
        <time>2020-02-04T13:11:44Z</time>
      </trkpt>
      <trkpt lat="43.52001" lon="5.46563">
        <ele>167</ele>
        <time>2020-02-04T13:11:56Z</time>
      </trkpt>
      <trkpt lat="43.52011" lon="5.46563">
        <ele>170</ele>
        <time>2020-02-04T13:12:05Z</time>
      </trkpt>
      <trkpt lat="43.5202" lon="5.46562">
        <ele>173</ele>
        <time>2020-02-04T13:12:21Z</time>
      </trkpt>
      <trkpt lat="43.52029" lon="5.46567">
        <ele>174</ele>
        <time>2020-02-04T13:12:33Z</time>
      </trkpt>
      <trkpt lat="43.52038" lon="5.46573">
        <ele>175</ele>
        <time>2020-02-04T13:12:43Z</time>
      </trkpt>
      <trkpt lat="43.52045" lon="5.46581">
        <ele>175</ele>
        <time>2020-02-04T13:12:54Z</time>
      </trkpt>
      <trkpt lat="43.52054" lon="5.46581">
        <ele>172</ele>
        <time>2020-02-04T13:14:20Z</time>
      </trkpt>
      <trkpt lat="43.52061" lon="5.46589">
        <ele>174</ele>
        <time>2020-02-04T13:14:33Z</time>
      </trkpt>
      <trkpt lat="43.52066" lon="5.466">
        <ele>172</ele>
        <time>2020-02-04T13:14:45Z</time>
      </trkpt>
      <trkpt lat="43.52072" lon="5.4661">
        <ele>171</ele>
        <time>2020-02-04T13:15:00Z</time>
      </trkpt>
      <trkpt lat="43.5208" lon="5.46618">
        <ele>173</ele>
        <time>2020-02-04T13:15:10Z</time>
      </trkpt>
      <trkpt lat="43.52089" lon="5.46621">
        <ele>174</ele>
        <time>2020-02-04T13:15:20Z</time>
      </trkpt>
      <trkpt lat="43.52098" lon="5.46622">
        <ele>172</ele>
        <time>2020-02-04T13:15:30Z</time>
      </trkpt>
      <trkpt lat="43.52109" lon="5.46618">
        <ele>172</ele>
        <time>2020-02-04T13:15:41Z</time>
      </trkpt>
      <trkpt lat="43.52118" lon="5.46615">
        <ele>170</ele>
        <time>2020-02-04T13:15:50Z</time>
      </trkpt>
      <trkpt lat="43.52124" lon="5.46604">
        <ele>171</ele>
        <time>2020-02-04T13:15:58Z</time>
      </trkpt>
      <trkpt lat="43.52131" lon="5.46596">
        <ele>172</ele>
        <time>2020-02-04T13:16:10Z</time>
      </trkpt>
      <trkpt lat="43.52139" lon="5.4659">
        <ele>170</ele>
        <time>2020-02-04T13:16:19Z</time>
      </trkpt>
      <trkpt lat="43.52148" lon="5.46586">
        <ele>170</ele>
        <time>2020-02-04T13:16:28Z</time>
      </trkpt>
      <trkpt lat="43.52157" lon="5.46583">
        <ele>169</ele>
        <time>2020-02-04T13:16:39Z</time>
      </trkpt>
      <trkpt lat="43.52167" lon="5.4658">
        <ele>169</ele>
        <time>2020-02-04T13:16:50Z</time>
      </trkpt>
      <trkpt lat="43.52176" lon="5.46579">
        <ele>169</ele>
        <time>2020-02-04T13:17:00Z</time>
      </trkpt>
      <trkpt lat="43.52186" lon="5.4658">
        <ele>168</ele>
        <time>2020-02-04T13:17:10Z</time>
      </trkpt>
      <trkpt lat="43.52195" lon="5.46575">
        <ele>168</ele>
        <time>2020-02-04T13:17:19Z</time>
      </trkpt>
      <trkpt lat="43.52203" lon="5.46567">
        <ele>169</ele>
        <time>2020-02-04T13:17:31Z</time>
      </trkpt>
      <trkpt lat="43.52211" lon="5.46559">
        <ele>171</ele>
        <time>2020-02-04T13:17:48Z</time>
      </trkpt>
      <trkpt lat="43.52218" lon="5.46552">
        <ele>169</ele>
        <time>2020-02-04T13:18:03Z</time>
      </trkpt>
      <trkpt lat="43.52224" lon="5.46541">
        <ele>168</ele>
        <time>2020-02-04T13:18:13Z</time>
      </trkpt>
      <trkpt lat="43.5223" lon="5.46531">
        <ele>167</ele>
        <time>2020-02-04T13:18:27Z</time>
      </trkpt>
      <trkpt lat="43.52233" lon="5.46519">
        <ele>168</ele>
        <time>2020-02-04T13:18:41Z</time>
      </trkpt>
      <trkpt lat="43.52238" lon="5.46507">
        <ele>168</ele>
        <time>2020-02-04T13:18:58Z</time>
      </trkpt>
      <trkpt lat="43.52247" lon="5.46502">
        <ele>169</ele>
        <time>2020-02-04T13:19:11Z</time>
      </trkpt>
      <trkpt lat="43.52254" lon="5.46494">
        <ele>172</ele>
        <time>2020-02-04T13:19:27Z</time>
      </trkpt>
      <trkpt lat="43.52263" lon="5.46491">
        <ele>171</ele>
        <time>2020-02-04T13:19:37Z</time>
      </trkpt>
      <trkpt lat="43.52272" lon="5.46485">
        <ele>173</ele>
        <time>2020-02-04T13:19:49Z</time>
      </trkpt>
      <trkpt lat="43.52272" lon="5.46472">
        <ele>178</ele>
        <time>2020-02-04T13:20:21Z</time>
      </trkpt>
      <trkpt lat="43.5228" lon="5.46479">
        <ele>179</ele>
        <time>2020-02-04T13:21:33Z</time>
      </trkpt>
      <trkpt lat="43.52289" lon="5.46475">
        <ele>178</ele>
        <time>2020-02-04T13:21:48Z</time>
      </trkpt>
      <trkpt lat="43.52298" lon="5.46478">
        <ele>179</ele>
        <time>2020-02-04T13:21:59Z</time>
      </trkpt>
      <trkpt lat="43.52308" lon="5.46476">
        <ele>176</ele>
        <time>2020-02-04T13:22:19Z</time>
      </trkpt>
      <trkpt lat="43.52314" lon="5.46466">
        <ele>184</ele>
        <time>2020-02-04T13:22:38Z</time>
      </trkpt>
      <trkpt lat="43.52307" lon="5.46476">
        <ele>187</ele>
        <time>2020-02-04T13:23:59Z</time>
      </trkpt>
      <trkpt lat="43.52317" lon="5.46478">
        <ele>183</ele>
        <time>2020-02-04T13:24:15Z</time>
      </trkpt>
      <trkpt lat="43.52326" lon="5.46476">
        <ele>181</ele>
        <time>2020-02-04T13:24:27Z</time>
      </trkpt>
      <trkpt lat="43.52336" lon="5.46475">
        <ele>179</ele>
        <time>2020-02-04T13:24:38Z</time>
      </trkpt>
      <trkpt lat="43.52344" lon="5.46469">
        <ele>178</ele>
        <time>2020-02-04T13:24:49Z</time>
      </trkpt>
      <trkpt lat="43.52352" lon="5.46463">
        <ele>174</ele>
        <time>2020-02-04T13:25:11Z</time>
      </trkpt>
      <trkpt lat="43.5236" lon="5.46455">
        <ele>173</ele>
        <time>2020-02-04T13:25:20Z</time>
      </trkpt>
      <trkpt lat="43.52369" lon="5.4645">
        <ele>172</ele>
        <time>2020-02-04T13:25:29Z</time>
      </trkpt>
      <trkpt lat="43.52377" lon="5.46445">
        <ele>173</ele>
        <time>2020-02-04T13:25:41Z</time>
      </trkpt>
      <trkpt lat="43.52387" lon="5.4644">
        <ele>172</ele>
        <time>2020-02-04T13:25:53Z</time>
      </trkpt>
      <trkpt lat="43.52396" lon="5.46442">
        <ele>173</ele>
        <time>2020-02-04T13:26:17Z</time>
      </trkpt>
      <trkpt lat="43.52405" lon="5.46441">
        <ele>173</ele>
        <time>2020-02-04T13:26:35Z</time>
      </trkpt>
      <trkpt lat="43.52414" lon="5.46446">
        <ele>171</ele>
        <time>2020-02-04T13:27:03Z</time>
      </trkpt>
      <trkpt lat="43.52423" lon="5.4645">
        <ele>172</ele>
        <time>2020-02-04T13:27:12Z</time>
      </trkpt>
      <trkpt lat="43.52433" lon="5.46454">
        <ele>172</ele>
        <time>2020-02-04T13:27:22Z</time>
      </trkpt>
      <trkpt lat="43.52442" lon="5.46456">
        <ele>178</ele>
        <time>2020-02-04T13:28:28Z</time>
      </trkpt>
      <trkpt lat="43.5245" lon="5.46464">
        <ele>178</ele>
        <time>2020-02-04T13:28:43Z</time>
      </trkpt>
      <trkpt lat="43.52459" lon="5.46467">
        <ele>175</ele>
        <time>2020-02-04T13:28:57Z</time>
      </trkpt>
      <trkpt lat="43.52468" lon="5.4647">
        <ele>174</ele>
        <time>2020-02-04T13:29:09Z</time>
      </trkpt>
      <trkpt lat="43.52478" lon="5.46467">
        <ele>173</ele>
        <time>2020-02-04T13:29:20Z</time>
      </trkpt>
      <trkpt lat="43.52487" lon="5.46461">
        <ele>172</ele>
        <time>2020-02-04T13:29:28Z</time>
      </trkpt>
      <trkpt lat="43.52492" lon="5.46449">
        <ele>172</ele>
        <time>2020-02-04T13:29:39Z</time>
      </trkpt>
      <trkpt lat="43.52501" lon="5.46442">
        <ele>173</ele>
        <time>2020-02-04T13:29:49Z</time>
      </trkpt>
      <trkpt lat="43.52507" lon="5.46432">
        <ele>172</ele>
        <time>2020-02-04T13:29:59Z</time>
      </trkpt>
      <trkpt lat="43.52513" lon="5.46421">
        <ele>172</ele>
        <time>2020-02-04T13:30:08Z</time>
      </trkpt>
      <trkpt lat="43.52519" lon="5.46412">
        <ele>171</ele>
        <time>2020-02-04T13:30:19Z</time>
      </trkpt>
      <trkpt lat="43.52525" lon="5.46401">
        <ele>172</ele>
        <time>2020-02-04T13:30:30Z</time>
      </trkpt>
      <trkpt lat="43.52531" lon="5.46391">
        <ele>173</ele>
        <time>2020-02-04T13:30:46Z</time>
      </trkpt>
      <trkpt lat="43.52539" lon="5.46384">
        <ele>173</ele>
        <time>2020-02-04T13:31:31Z</time>
      </trkpt>
      <trkpt lat="43.52549" lon="5.4638">
        <ele>173</ele>
        <time>2020-02-04T13:32:18Z</time>
      </trkpt>
      <trkpt lat="43.52558" lon="5.46382">
        <ele>172</ele>
        <time>2020-02-04T13:32:33Z</time>
      </trkpt>
      <trkpt lat="43.52567" lon="5.46384">
        <ele>170</ele>
        <time>2020-02-04T13:32:44Z</time>
      </trkpt>
      <trkpt lat="43.52576" lon="5.46385">
        <ele>171</ele>
        <time>2020-02-04T13:32:55Z</time>
      </trkpt>
      <trkpt lat="43.52585" lon="5.46387">
        <ele>171</ele>
        <time>2020-02-04T13:33:05Z</time>
      </trkpt>
      <trkpt lat="43.52594" lon="5.46392">
        <ele>171</ele>
        <time>2020-02-04T13:33:17Z</time>
      </trkpt>
      <trkpt lat="43.52602" lon="5.46399">
        <ele>171</ele>
        <time>2020-02-04T13:33:26Z</time>
      </trkpt>
      <trkpt lat="43.52612" lon="5.46399">
        <ele>172</ele>
        <time>2020-02-04T13:33:35Z</time>
      </trkpt>
      <trkpt lat="43.52621" lon="5.46394">
        <ele>172</ele>
        <time>2020-02-04T13:33:45Z</time>
      </trkpt>
      <trkpt lat="43.52631" lon="5.46388">
        <ele>172</ele>
        <time>2020-02-04T13:33:56Z</time>
      </trkpt>
      <trkpt lat="43.52639" lon="5.46383">
        <ele>172</ele>
        <time>2020-02-04T13:34:04Z</time>
      </trkpt>
      <trkpt lat="43.52647" lon="5.46376">
        <ele>172</ele>
        <time>2020-02-04T13:34:14Z</time>
      </trkpt>
      <trkpt lat="43.52655" lon="5.46365">
        <ele>171</ele>
        <time>2020-02-04T13:34:26Z</time>
      </trkpt>
      <trkpt lat="43.52663" lon="5.46359">
        <ele>173</ele>
        <time>2020-02-04T13:34:37Z</time>
      </trkpt>
      <trkpt lat="43.52672" lon="5.46352">
        <ele>175</ele>
        <time>2020-02-04T13:34:47Z</time>
      </trkpt>
      <trkpt lat="43.52681" lon="5.46348">
        <ele>176</ele>
        <time>2020-02-04T13:34:57Z</time>
      </trkpt>
      <trkpt lat="43.52689" lon="5.46343">
        <ele>178</ele>
        <time>2020-02-04T13:35:22Z</time>
      </trkpt>
      <trkpt lat="43.52693" lon="5.46331">
        <ele>179</ele>
        <time>2020-02-04T13:35:33Z</time>
      </trkpt>
      <trkpt lat="43.52702" lon="5.46328">
        <ele>178</ele>
        <time>2020-02-04T13:35:43Z</time>
      </trkpt>
      <trkpt lat="43.52712" lon="5.46329">
        <ele>177</ele>
        <time>2020-02-04T13:36:00Z</time>
      </trkpt>
      <trkpt lat="43.52721" lon="5.46333">
        <ele>178</ele>
        <time>2020-02-04T13:36:15Z</time>
      </trkpt>
      <trkpt lat="43.52731" lon="5.46336">
        <ele>178</ele>
        <time>2020-02-04T13:36:25Z</time>
      </trkpt>
      <trkpt lat="43.5274" lon="5.46334">
        <ele>177</ele>
        <time>2020-02-04T13:36:36Z</time>
      </trkpt>
      <trkpt lat="43.5275" lon="5.46333">
        <ele>177</ele>
        <time>2020-02-04T13:36:47Z</time>
      </trkpt>
      <trkpt lat="43.52759" lon="5.46332">
        <ele>176</ele>
        <time>2020-02-04T13:36:59Z</time>
      </trkpt>
      <trkpt lat="43.52771" lon="5.4633">
        <ele>176</ele>
        <time>2020-02-04T13:37:13Z</time>
      </trkpt>
      <trkpt lat="43.5278" lon="5.46326">
        <ele>176</ele>
        <time>2020-02-04T13:37:20Z</time>
      </trkpt>
      <trkpt lat="43.5279" lon="5.46324">
        <ele>174</ele>
        <time>2020-02-04T13:37:29Z</time>
      </trkpt>
      <trkpt lat="43.52798" lon="5.4632">
        <ele>174</ele>
        <time>2020-02-04T13:37:40Z</time>
      </trkpt>
      <trkpt lat="43.52806" lon="5.46313">
        <ele>176</ele>
        <time>2020-02-04T13:37:51Z</time>
      </trkpt>
      <trkpt lat="43.52815" lon="5.4631">
        <ele>178</ele>
        <time>2020-02-04T13:38:11Z</time>
      </trkpt>
      <trkpt lat="43.52824" lon="5.46309">
        <ele>178</ele>
        <time>2020-02-04T13:38:23Z</time>
      </trkpt>
      <trkpt lat="43.52833" lon="5.46303">
        <ele>179</ele>
        <time>2020-02-04T13:38:36Z</time>
      </trkpt>
      <trkpt lat="43.52843" lon="5.463">
        <ele>180</ele>
        <time>2020-02-04T13:39:19Z</time>
      </trkpt>
      <trkpt lat="43.52851" lon="5.46295">
        <ele>175</ele>
        <time>2020-02-04T13:39:31Z</time>
      </trkpt>
      <trkpt lat="43.52861" lon="5.46291">
        <ele>179</ele>
        <time>2020-02-04T13:39:42Z</time>
      </trkpt>
      <trkpt lat="43.52869" lon="5.46285">
        <ele>180</ele>
        <time>2020-02-04T13:40:22Z</time>
      </trkpt>
      <trkpt lat="43.52878" lon="5.46281">
        <ele>179</ele>
        <time>2020-02-04T13:40:39Z</time>
      </trkpt>
      <trkpt lat="43.52888" lon="5.46279">
        <ele>181</ele>
        <time>2020-02-04T13:40:58Z</time>
      </trkpt>
      <trkpt lat="43.52898" lon="5.46277">
        <ele>179</ele>
        <time>2020-02-04T13:41:10Z</time>
      </trkpt>
      <trkpt lat="43.52907" lon="5.46272">
        <ele>179</ele>
        <time>2020-02-04T13:41:20Z</time>
      </trkpt>
      <trkpt lat="43.52917" lon="5.46276">
        <ele>174</ele>
        <time>2020-02-04T13:41:48Z</time>
      </trkpt>
      <trkpt lat="43.52927" lon="5.46278">
        <ele>172</ele>
        <time>2020-02-04T13:42:00Z</time>
      </trkpt>
      <trkpt lat="43.52936" lon="5.46282">
        <ele>174</ele>
        <time>2020-02-04T13:42:19Z</time>
      </trkpt>
      <trkpt lat="43.52945" lon="5.46283">
        <ele>173</ele>
        <time>2020-02-04T13:42:30Z</time>
      </trkpt>
      <trkpt lat="43.52957" lon="5.46286">
        <ele>171</ele>
        <time>2020-02-04T13:42:58Z</time>
      </trkpt>
      <trkpt lat="43.5296" lon="5.46298">
        <ele>173</ele>
        <time>2020-02-04T13:43:14Z</time>
      </trkpt>
      <trkpt lat="43.52968" lon="5.46307">
        <ele>174</ele>
        <time>2020-02-04T13:43:25Z</time>
      </trkpt>
      <trkpt lat="43.52976" lon="5.46312">
        <ele>177</ele>
        <time>2020-02-04T13:43:41Z</time>
      </trkpt>
      <trkpt lat="43.52983" lon="5.46321">
        <ele>176</ele>
        <time>2020-02-04T13:44:00Z</time>
      </trkpt>
      <trkpt lat="43.52994" lon="5.46325">
        <ele>177</ele>
        <time>2020-02-04T13:44:18Z</time>
      </trkpt>
      <trkpt lat="43.53003" lon="5.46329">
        <ele>179</ele>
        <time>2020-02-04T13:44:29Z</time>
      </trkpt>
      <trkpt lat="43.53012" lon="5.46335">
        <ele>178</ele>
        <time>2020-02-04T13:44:50Z</time>
      </trkpt>
      <trkpt lat="43.53016" lon="5.46347">
        <ele>175</ele>
        <time>2020-02-04T13:47:18Z</time>
      </trkpt>
      <trkpt lat="43.5302" lon="5.46359">
        <ele>174</ele>
        <time>2020-02-04T13:47:29Z</time>
      </trkpt>
      <trkpt lat="43.53022" lon="5.4637">
        <ele>175</ele>
        <time>2020-02-04T13:47:43Z</time>
      </trkpt>
      <trkpt lat="43.53026" lon="5.46382">
        <ele>176</ele>
        <time>2020-02-04T13:48:06Z</time>
      </trkpt>
      <trkpt lat="43.53029" lon="5.46369">
        <ele>184</ele>
        <time>2020-02-04T13:49:49Z</time>
      </trkpt>
      <trkpt lat="43.53025" lon="5.46356">
        <ele>193</ele>
        <time>2020-02-04T13:50:17Z</time>
      </trkpt>
      <trkpt lat="43.53022" lon="5.46343">
        <ele>191</ele>
        <time>2020-02-04T13:50:29Z</time>
      </trkpt>
      <trkpt lat="43.53021" lon="5.46331">
        <ele>192</ele>
        <time>2020-02-04T13:50:42Z</time>
      </trkpt>
      <trkpt lat="43.53021" lon="5.46318">
        <ele>193</ele>
        <time>2020-02-04T13:50:57Z</time>
      </trkpt>
      <trkpt lat="43.53016" lon="5.46305">
        <ele>196</ele>
        <time>2020-02-04T13:51:11Z</time>
      </trkpt>
      <trkpt lat="43.53015" lon="5.46291">
        <ele>200</ele>
        <time>2020-02-04T13:51:27Z</time>
      </trkpt>
      <trkpt lat="43.53017" lon="5.46304">
        <ele>194</ele>
        <time>2020-02-04T13:52:09Z</time>
      </trkpt>
      <trkpt lat="43.53021" lon="5.46316">
        <ele>192</ele>
        <time>2020-02-04T13:52:19Z</time>
      </trkpt>
      <trkpt lat="43.53023" lon="5.46328">
        <ele>188</ele>
        <time>2020-02-04T13:52:30Z</time>
      </trkpt>
      <trkpt lat="43.53024" lon="5.46341">
        <ele>184</ele>
        <time>2020-02-04T13:52:52Z</time>
      </trkpt>
      <trkpt lat="43.53028" lon="5.46354">
        <ele>183</ele>
        <time>2020-02-04T13:53:07Z</time>
      </trkpt>
      <trkpt lat="43.53028" lon="5.46367">
        <ele>182</ele>
        <time>2020-02-04T13:53:17Z</time>
      </trkpt>
      <trkpt lat="43.5303" lon="5.46379">
        <ele>181</ele>
        <time>2020-02-04T13:53:31Z</time>
      </trkpt>
      <trkpt lat="43.53038" lon="5.46387">
        <ele>200</ele>
        <time>2020-02-04T13:54:51Z</time>
      </trkpt>
      <trkpt lat="43.53048" lon="5.46388">
        <ele>200</ele>
        <time>2020-02-04T13:55:04Z</time>
      </trkpt>
      <trkpt lat="43.53057" lon="5.46396">
        <ele>197</ele>
        <time>2020-02-04T13:55:18Z</time>
      </trkpt>
      <trkpt lat="43.53065" lon="5.46403">
        <ele>194</ele>
        <time>2020-02-04T13:55:30Z</time>
      </trkpt>
      <trkpt lat="43.53072" lon="5.46411">
        <ele>198</ele>
        <time>2020-02-04T13:55:42Z</time>
      </trkpt>
      <trkpt lat="43.53083" lon="5.46409">
        <ele>196</ele>
        <time>2020-02-04T13:55:53Z</time>
      </trkpt>
      <trkpt lat="43.53092" lon="5.46406">
        <ele>194</ele>
        <time>2020-02-04T13:56:01Z</time>
      </trkpt>
      <trkpt lat="43.53101" lon="5.464">
        <ele>195</ele>
        <time>2020-02-04T13:56:12Z</time>
      </trkpt>
      <trkpt lat="43.53109" lon="5.46394">
        <ele>196</ele>
        <time>2020-02-04T13:56:23Z</time>
      </trkpt>
      <trkpt lat="43.53117" lon="5.46387">
        <ele>198</ele>
        <time>2020-02-04T13:56:33Z</time>
      </trkpt>
      <trkpt lat="43.53122" lon="5.46376">
        <ele>200</ele>
        <time>2020-02-04T13:56:46Z</time>
      </trkpt>
      <trkpt lat="43.53128" lon="5.46366">
        <ele>198</ele>
        <time>2020-02-04T13:57:02Z</time>
      </trkpt>
      <trkpt lat="43.53133" lon="5.46354">
        <ele>198</ele>
        <time>2020-02-04T13:57:15Z</time>
      </trkpt>
      <trkpt lat="43.53144" lon="5.46351">
        <ele>198</ele>
        <time>2020-02-04T13:57:31Z</time>
      </trkpt>
      <trkpt lat="43.53153" lon="5.46348">
        <ele>197</ele>
        <time>2020-02-04T13:57:42Z</time>
      </trkpt>
      <trkpt lat="43.53161" lon="5.46342">
        <ele>197</ele>
        <time>2020-02-04T13:57:52Z</time>
      </trkpt>
      <trkpt lat="43.5317" lon="5.46337">
        <ele>196</ele>
        <time>2020-02-04T13:58:00Z</time>
      </trkpt>
      <trkpt lat="43.53178" lon="5.46332">
        <ele>197</ele>
        <time>2020-02-04T13:58:12Z</time>
      </trkpt>
      <trkpt lat="43.53187" lon="5.46327">
        <ele>197</ele>
        <time>2020-02-04T13:58:23Z</time>
      </trkpt>
      <trkpt lat="43.53197" lon="5.46325">
        <ele>197</ele>
        <time>2020-02-04T13:58:36Z</time>
      </trkpt>
      <trkpt lat="43.53205" lon="5.46319">
        <ele>198</ele>
        <time>2020-02-04T13:58:49Z</time>
      </trkpt>
      <trkpt lat="43.53209" lon="5.46307">
        <ele>204</ele>
        <time>2020-02-04T13:58:58Z</time>
      </trkpt>
      <trkpt lat="43.53213" lon="5.46295">
        <ele>205</ele>
        <time>2020-02-04T13:59:08Z</time>
      </trkpt>
      <trkpt lat="43.53208" lon="5.46284">
        <ele>206</ele>
        <time>2020-02-04T13:59:20Z</time>
      </trkpt>
      <trkpt lat="43.532" lon="5.46276">
        <ele>205</ele>
        <time>2020-02-04T13:59:32Z</time>
      </trkpt>
      <trkpt lat="43.53195" lon="5.46266">
        <ele>204</ele>
        <time>2020-02-04T13:59:44Z</time>
      </trkpt>
      <trkpt lat="43.5319" lon="5.46255">
        <ele>202</ele>
        <time>2020-02-04T14:00:04Z</time>
      </trkpt>
      <trkpt lat="43.53187" lon="5.46243">
        <ele>201</ele>
        <time>2020-02-04T14:00:14Z</time>
      </trkpt>
      <trkpt lat="43.53181" lon="5.46234">
        <ele>202</ele>
        <time>2020-02-04T14:00:24Z</time>
      </trkpt>
      <trkpt lat="43.53176" lon="5.46222">
        <ele>199</ele>
        <time>2020-02-04T14:00:35Z</time>
      </trkpt>
      <trkpt lat="43.53171" lon="5.46211">
        <ele>200</ele>
        <time>2020-02-04T14:00:46Z</time>
      </trkpt>
      <trkpt lat="43.53164" lon="5.46203">
        <ele>204</ele>
        <time>2020-02-04T14:01:22Z</time>
      </trkpt>
      <trkpt lat="43.53161" lon="5.46191">
        <ele>201</ele>
        <time>2020-02-04T14:01:31Z</time>
      </trkpt>
      <trkpt lat="43.53159" lon="5.46179">
        <ele>201</ele>
        <time>2020-02-04T14:01:43Z</time>
      </trkpt>
      <trkpt lat="43.53156" lon="5.46166">
        <ele>201</ele>
        <time>2020-02-04T14:01:53Z</time>
      </trkpt>
      <trkpt lat="43.5315" lon="5.46155">
        <ele>200</ele>
        <time>2020-02-04T14:02:04Z</time>
      </trkpt>
      <trkpt lat="43.53146" lon="5.46142">
        <ele>199</ele>
        <time>2020-02-04T14:02:12Z</time>
      </trkpt>
      <trkpt lat="43.53141" lon="5.4613">
        <ele>198</ele>
        <time>2020-02-04T14:02:23Z</time>
      </trkpt>
      <trkpt lat="43.53136" lon="5.4612">
        <ele>198</ele>
        <time>2020-02-04T14:02:36Z</time>
      </trkpt>
      <trkpt lat="43.5313" lon="5.46109">
        <ele>198</ele>
        <time>2020-02-04T14:02:45Z</time>
      </trkpt>
      <trkpt lat="43.53127" lon="5.46096">
        <ele>196</ele>
        <time>2020-02-04T14:02:55Z</time>
      </trkpt>
      <trkpt lat="43.53119" lon="5.46088">
        <ele>197</ele>
        <time>2020-02-04T14:03:07Z</time>
      </trkpt>
      <trkpt lat="43.53109" lon="5.46088">
        <ele>193</ele>
        <time>2020-02-04T14:03:27Z</time>
      </trkpt>
      <trkpt lat="43.531" lon="5.46087">
        <ele>195</ele>
        <time>2020-02-04T14:03:37Z</time>
      </trkpt>
      <trkpt lat="43.53091" lon="5.46082">
        <ele>195</ele>
        <time>2020-02-04T14:03:51Z</time>
      </trkpt>
      <trkpt lat="43.5309" lon="5.4607">
        <ele>195</ele>
        <time>2020-02-04T14:04:31Z</time>
      </trkpt>
      <trkpt lat="43.53089" lon="5.46056">
        <ele>193</ele>
        <time>2020-02-04T14:04:47Z</time>
      </trkpt>
      <trkpt lat="43.53087" lon="5.46043">
        <ele>196</ele>
        <time>2020-02-04T14:05:05Z</time>
      </trkpt>
      <trkpt lat="43.53084" lon="5.46032">
        <ele>200</ele>
        <time>2020-02-04T14:05:16Z</time>
      </trkpt>
      <trkpt lat="43.53085" lon="5.46018">
        <ele>202</ele>
        <time>2020-02-04T14:05:31Z</time>
      </trkpt>
      <trkpt lat="43.53084" lon="5.46005">
        <ele>203</ele>
        <time>2020-02-04T14:05:41Z</time>
      </trkpt>
      <trkpt lat="43.53079" lon="5.45994">
        <ele>203</ele>
        <time>2020-02-04T14:05:56Z</time>
      </trkpt>
      <trkpt lat="43.53078" lon="5.45981">
        <ele>205</ele>
        <time>2020-02-04T14:06:10Z</time>
      </trkpt>
      <trkpt lat="43.53081" lon="5.45969">
        <ele>207</ele>
        <time>2020-02-04T14:06:21Z</time>
      </trkpt>
      <trkpt lat="43.5308" lon="5.45956">
        <ele>207</ele>
        <time>2020-02-04T14:06:31Z</time>
      </trkpt>
      <trkpt lat="43.53076" lon="5.45943">
        <ele>209</ele>
        <time>2020-02-04T14:06:44Z</time>
      </trkpt>
      <trkpt lat="43.53079" lon="5.45931">
        <ele>210</ele>
        <time>2020-02-04T14:07:53Z</time>
      </trkpt>
      <trkpt lat="43.53086" lon="5.45942">
        <ele>210</ele>
        <time>2020-02-04T14:08:07Z</time>
      </trkpt>
      <trkpt lat="43.53091" lon="5.45952">
        <ele>208</ele>
        <time>2020-02-04T14:08:19Z</time>
      </trkpt>
      <trkpt lat="43.53094" lon="5.45965">
        <ele>206</ele>
        <time>2020-02-04T14:08:31Z</time>
      </trkpt>
      <trkpt lat="43.53099" lon="5.45976">
        <ele>203</ele>
        <time>2020-02-04T14:08:42Z</time>
      </trkpt>
      <trkpt lat="43.53106" lon="5.45985">
        <ele>202</ele>
        <time>2020-02-04T14:08:53Z</time>
      </trkpt>
      <trkpt lat="43.53112" lon="5.45995">
        <ele>200</ele>
        <time>2020-02-04T14:09:04Z</time>
      </trkpt>
      <trkpt lat="43.53119" lon="5.46005">
        <ele>199</ele>
        <time>2020-02-04T14:09:14Z</time>
      </trkpt>
      <trkpt lat="43.53125" lon="5.46015">
        <ele>203</ele>
        <time>2020-02-04T14:09:23Z</time>
      </trkpt>
      <trkpt lat="43.53131" lon="5.46024">
        <ele>202</ele>
        <time>2020-02-04T14:09:33Z</time>
      </trkpt>
      <trkpt lat="43.5314" lon="5.4603">
        <ele>201</ele>
        <time>2020-02-04T14:09:44Z</time>
      </trkpt>
      <trkpt lat="43.53149" lon="5.46027">
        <ele>198</ele>
        <time>2020-02-04T14:09:52Z</time>
      </trkpt>
      <trkpt lat="43.53159" lon="5.46024">
        <ele>196</ele>
        <time>2020-02-04T14:10:02Z</time>
      </trkpt>
      <trkpt lat="43.53168" lon="5.46024">
        <ele>195</ele>
        <time>2020-02-04T14:10:13Z</time>
      </trkpt>
      <trkpt lat="43.53178" lon="5.46022">
        <ele>195</ele>
        <time>2020-02-04T14:10:23Z</time>
      </trkpt>
      <trkpt lat="43.53187" lon="5.46021">
        <ele>196</ele>
        <time>2020-02-04T14:10:33Z</time>
      </trkpt>
      <trkpt lat="43.53197" lon="5.46018">
        <ele>196</ele>
        <time>2020-02-04T14:10:46Z</time>
      </trkpt>
      <trkpt lat="43.53206" lon="5.4602">
        <ele>196</ele>
        <time>2020-02-04T14:11:48Z</time>
      </trkpt>
      <trkpt lat="43.53196" lon="5.4602">
        <ele>199</ele>
        <time>2020-02-04T14:12:48Z</time>
      </trkpt>
      <trkpt lat="43.53205" lon="5.46018">
        <ele>199</ele>
        <time>2020-02-04T14:13:31Z</time>
      </trkpt>
      <trkpt lat="43.53213" lon="5.46022">
        <ele>202</ele>
        <time>2020-02-04T14:13:42Z</time>
      </trkpt>
      <trkpt lat="43.53219" lon="5.46032">
        <ele>199</ele>
        <time>2020-02-04T14:14:03Z</time>
      </trkpt>
      <trkpt lat="43.53225" lon="5.46043">
        <ele>197</ele>
        <time>2020-02-04T14:14:12Z</time>
      </trkpt>
      <trkpt lat="43.5323" lon="5.46053">
        <ele>197</ele>
        <time>2020-02-04T14:14:22Z</time>
      </trkpt>
      <trkpt lat="43.53222" lon="5.4605">
        <ele>196</ele>
        <time>2020-02-04T14:14:46Z</time>
      </trkpt>
      <trkpt lat="43.53218" lon="5.46038">
        <ele>197</ele>
        <time>2020-02-04T14:15:19Z</time>
      </trkpt>
      <trkpt lat="43.53211" lon="5.46029">
        <ele>201</ele>
        <time>2020-02-04T14:15:43Z</time>
      </trkpt>
      <trkpt lat="43.53203" lon="5.46022">
        <ele>201</ele>
        <time>2020-02-04T14:15:59Z</time>
      </trkpt>
      <trkpt lat="43.53194" lon="5.46022">
        <ele>201</ele>
        <time>2020-02-04T14:16:11Z</time>
      </trkpt>
      <trkpt lat="43.53187" lon="5.46031">
        <ele>198</ele>
        <time>2020-02-04T14:16:25Z</time>
      </trkpt>
      <trkpt lat="43.53179" lon="5.46037">
        <ele>198</ele>
        <time>2020-02-04T14:16:41Z</time>
      </trkpt>
      <trkpt lat="43.53169" lon="5.4604">
        <ele>197</ele>
        <time>2020-02-04T14:16:50Z</time>
      </trkpt>
      <trkpt lat="43.53161" lon="5.46044">
        <ele>197</ele>
        <time>2020-02-04T14:16:58Z</time>
      </trkpt>
      <trkpt lat="43.53151" lon="5.46049">
        <ele>198</ele>
        <time>2020-02-04T14:17:06Z</time>
      </trkpt>
      <trkpt lat="43.53142" lon="5.46052">
        <ele>198</ele>
        <time>2020-02-04T14:17:18Z</time>
      </trkpt>
      <trkpt lat="43.53133" lon="5.46053">
        <ele>198</ele>
        <time>2020-02-04T14:17:30Z</time>
      </trkpt>
      <trkpt lat="43.53123" lon="5.46056">
        <ele>199</ele>
        <time>2020-02-04T14:17:41Z</time>
      </trkpt>
      <trkpt lat="43.53114" lon="5.46058">
        <ele>199</ele>
        <time>2020-02-04T14:17:54Z</time>
      </trkpt>
      <trkpt lat="43.53103" lon="5.4606">
        <ele>197</ele>
        <time>2020-02-04T14:18:07Z</time>
      </trkpt>
      <trkpt lat="43.53093" lon="5.46061">
        <ele>198</ele>
        <time>2020-02-04T14:18:21Z</time>
      </trkpt>
      <trkpt lat="43.53096" lon="5.46073">
        <ele>192</ele>
        <time>2020-02-04T14:19:00Z</time>
      </trkpt>
      <trkpt lat="43.53092" lon="5.46085">
        <ele>191</ele>
        <time>2020-02-04T14:19:27Z</time>
      </trkpt>
      <trkpt lat="43.53102" lon="5.46087">
        <ele>191</ele>
        <time>2020-02-04T14:19:51Z</time>
      </trkpt>
      <trkpt lat="43.53111" lon="5.46087">
        <ele>191</ele>
        <time>2020-02-04T14:20:01Z</time>
      </trkpt>
      <trkpt lat="43.53121" lon="5.4609">
        <ele>194</ele>
        <time>2020-02-04T14:20:14Z</time>
      </trkpt>
      <trkpt lat="43.53127" lon="5.461">
        <ele>194</ele>
        <time>2020-02-04T14:20:27Z</time>
      </trkpt>
      <trkpt lat="43.53135" lon="5.46108">
        <ele>193</ele>
        <time>2020-02-04T14:20:37Z</time>
      </trkpt>
      <trkpt lat="43.53138" lon="5.46121">
        <ele>190</ele>
        <time>2020-02-04T14:20:55Z</time>
      </trkpt>
      <trkpt lat="43.53143" lon="5.46131">
        <ele>189</ele>
        <time>2020-02-04T14:21:07Z</time>
      </trkpt>
      <trkpt lat="43.53147" lon="5.46143">
        <ele>188</ele>
        <time>2020-02-04T14:21:18Z</time>
      </trkpt>
      <trkpt lat="43.53152" lon="5.46153">
        <ele>189</ele>
        <time>2020-02-04T14:21:29Z</time>
      </trkpt>
      <trkpt lat="43.53158" lon="5.46167">
        <ele>190</ele>
        <time>2020-02-04T14:21:43Z</time>
      </trkpt>
      <trkpt lat="43.53162" lon="5.46179">
        <ele>191</ele>
        <time>2020-02-04T14:21:53Z</time>
      </trkpt>
      <trkpt lat="43.53166" lon="5.4619">
        <ele>191</ele>
        <time>2020-02-04T14:22:03Z</time>
      </trkpt>
      <trkpt lat="43.53172" lon="5.46201">
        <ele>192</ele>
        <time>2020-02-04T14:22:14Z</time>
      </trkpt>
      <trkpt lat="43.53176" lon="5.46212">
        <ele>193</ele>
        <time>2020-02-04T14:22:24Z</time>
      </trkpt>
      <trkpt lat="43.53179" lon="5.46224">
        <ele>195</ele>
        <time>2020-02-04T14:22:33Z</time>
      </trkpt>
      <trkpt lat="43.53184" lon="5.46234">
        <ele>197</ele>
        <time>2020-02-04T14:22:43Z</time>
      </trkpt>
      <trkpt lat="43.5319" lon="5.46244">
        <ele>197</ele>
        <time>2020-02-04T14:22:55Z</time>
      </trkpt>
      <trkpt lat="43.53196" lon="5.46254">
        <ele>198</ele>
        <time>2020-02-04T14:23:06Z</time>
      </trkpt>
      <trkpt lat="43.53201" lon="5.46265">
        <ele>200</ele>
        <time>2020-02-04T14:23:18Z</time>
      </trkpt>
      <trkpt lat="43.53206" lon="5.46276">
        <ele>202</ele>
        <time>2020-02-04T14:23:34Z</time>
      </trkpt>
      <trkpt lat="43.53212" lon="5.46286">
        <ele>201</ele>
        <time>2020-02-04T14:23:46Z</time>
      </trkpt>
      <trkpt lat="43.53209" lon="5.46298">
        <ele>200</ele>
        <time>2020-02-04T14:24:00Z</time>
      </trkpt>
      <trkpt lat="43.532" lon="5.46302">
        <ele>199</ele>
        <time>2020-02-04T14:24:14Z</time>
      </trkpt>
      <trkpt lat="43.53191" lon="5.46307">
        <ele>199</ele>
        <time>2020-02-04T14:24:23Z</time>
      </trkpt>
      <trkpt lat="43.53183" lon="5.46313">
        <ele>199</ele>
        <time>2020-02-04T14:24:34Z</time>
      </trkpt>
      <trkpt lat="43.53175" lon="5.46319">
        <ele>199</ele>
        <time>2020-02-04T14:24:45Z</time>
      </trkpt>
      <trkpt lat="43.53166" lon="5.46326">
        <ele>201</ele>
        <time>2020-02-04T14:24:54Z</time>
      </trkpt>
      <trkpt lat="43.53157" lon="5.46331">
        <ele>202</ele>
        <time>2020-02-04T14:25:03Z</time>
      </trkpt>
      <trkpt lat="43.53148" lon="5.46335">
        <ele>201</ele>
        <time>2020-02-04T14:25:15Z</time>
      </trkpt>
      <trkpt lat="43.53139" lon="5.46341">
        <ele>199</ele>
        <time>2020-02-04T14:25:27Z</time>
      </trkpt>
      <trkpt lat="43.53132" lon="5.46349">
        <ele>197</ele>
        <time>2020-02-04T14:25:39Z</time>
      </trkpt>
      <trkpt lat="43.53125" lon="5.46358">
        <ele>195</ele>
        <time>2020-02-04T14:25:51Z</time>
      </trkpt>
      <trkpt lat="43.53119" lon="5.46368">
        <ele>194</ele>
        <time>2020-02-04T14:25:59Z</time>
      </trkpt>
      <trkpt lat="43.53114" lon="5.4638">
        <ele>194</ele>
        <time>2020-02-04T14:26:10Z</time>
      </trkpt>
      <trkpt lat="43.53107" lon="5.4639">
        <ele>196</ele>
        <time>2020-02-04T14:26:21Z</time>
      </trkpt>
      <trkpt lat="43.531" lon="5.46398">
        <ele>197</ele>
        <time>2020-02-04T14:26:31Z</time>
      </trkpt>
      <trkpt lat="43.53092" lon="5.46406">
        <ele>199</ele>
        <time>2020-02-04T14:26:42Z</time>
      </trkpt>
      <trkpt lat="43.53082" lon="5.46407">
        <ele>198</ele>
        <time>2020-02-04T14:26:55Z</time>
      </trkpt>
      <trkpt lat="43.53073" lon="5.46407">
        <ele>199</ele>
        <time>2020-02-04T14:27:05Z</time>
      </trkpt>
      <trkpt lat="43.53064" lon="5.46403">
        <ele>199</ele>
        <time>2020-02-04T14:27:18Z</time>
      </trkpt>
      <trkpt lat="43.53059" lon="5.46392">
        <ele>196</ele>
        <time>2020-02-04T14:27:30Z</time>
      </trkpt>
      <trkpt lat="43.53051" lon="5.46384">
        <ele>195</ele>
        <time>2020-02-04T14:27:41Z</time>
      </trkpt>
      <trkpt lat="43.53043" lon="5.46379">
        <ele>193</ele>
        <time>2020-02-04T14:28:02Z</time>
      </trkpt>
      <trkpt lat="43.53032" lon="5.46382">
        <ele>192</ele>
        <time>2020-02-04T14:28:17Z</time>
      </trkpt>
      <trkpt lat="43.53023" lon="5.46383">
        <ele>195</ele>
        <time>2020-02-04T14:31:10Z</time>
      </trkpt>
      <trkpt lat="43.53021" lon="5.46368">
        <ele>197</ele>
        <time>2020-02-04T14:31:52Z</time>
      </trkpt>
      <trkpt lat="43.53019" lon="5.46356">
        <ele>196</ele>
        <time>2020-02-04T14:32:03Z</time>
      </trkpt>
      <trkpt lat="43.53016" lon="5.46343">
        <ele>194</ele>
        <time>2020-02-04T14:32:14Z</time>
      </trkpt>
      <trkpt lat="43.53009" lon="5.46334">
        <ele>183</ele>
        <time>2020-02-04T14:33:54Z</time>
      </trkpt>
      <trkpt lat="43.53" lon="5.4633">
        <ele>184</ele>
        <time>2020-02-04T14:34:06Z</time>
      </trkpt>
      <trkpt lat="43.52992" lon="5.46325">
        <ele>187</ele>
        <time>2020-02-04T14:34:23Z</time>
      </trkpt>
      <trkpt lat="43.52983" lon="5.46317">
        <ele>191</ele>
        <time>2020-02-04T14:34:37Z</time>
      </trkpt>
      <trkpt lat="43.52974" lon="5.46311">
        <ele>189</ele>
        <time>2020-02-04T14:34:48Z</time>
      </trkpt>
      <trkpt lat="43.52968" lon="5.463">
        <ele>190</ele>
        <time>2020-02-04T14:35:02Z</time>
      </trkpt>
      <trkpt lat="43.5296" lon="5.4629">
        <ele>189</ele>
        <time>2020-02-04T14:35:14Z</time>
      </trkpt>
      <trkpt lat="43.52951" lon="5.46285">
        <ele>190</ele>
        <time>2020-02-04T14:35:26Z</time>
      </trkpt>
      <trkpt lat="43.52941" lon="5.46281">
        <ele>190</ele>
        <time>2020-02-04T14:35:35Z</time>
      </trkpt>
      <trkpt lat="43.52932" lon="5.46284">
        <ele>190</ele>
        <time>2020-02-04T14:35:43Z</time>
      </trkpt>
      <trkpt lat="43.52924" lon="5.46277">
        <ele>192</ele>
        <time>2020-02-04T14:35:55Z</time>
      </trkpt>
      <trkpt lat="43.52915" lon="5.46278">
        <ele>193</ele>
        <time>2020-02-04T14:36:07Z</time>
      </trkpt>
      <trkpt lat="43.52905" lon="5.46279">
        <ele>195</ele>
        <time>2020-02-04T14:36:19Z</time>
      </trkpt>
      <trkpt lat="43.52898" lon="5.46269">
        <ele>196</ele>
        <time>2020-02-04T14:36:27Z</time>
      </trkpt>
      <trkpt lat="43.5289" lon="5.46264">
        <ele>186</ele>
        <time>2020-02-04T14:37:10Z</time>
      </trkpt>
      <trkpt lat="43.52881" lon="5.46269">
        <ele>187</ele>
        <time>2020-02-04T14:37:21Z</time>
      </trkpt>
      <trkpt lat="43.52872" lon="5.46273">
        <ele>190</ele>
        <time>2020-02-04T14:37:30Z</time>
      </trkpt>
      <trkpt lat="43.52863" lon="5.46277">
        <ele>192</ele>
        <time>2020-02-04T14:37:37Z</time>
      </trkpt>
      <trkpt lat="43.52854" lon="5.46283">
        <ele>192</ele>
        <time>2020-02-04T14:37:44Z</time>
      </trkpt>
      <trkpt lat="43.52847" lon="5.46291">
        <ele>194</ele>
        <time>2020-02-04T14:37:51Z</time>
      </trkpt>
      <trkpt lat="43.52838" lon="5.46295">
        <ele>193</ele>
        <time>2020-02-04T14:37:57Z</time>
      </trkpt>
      <trkpt lat="43.52831" lon="5.46302">
        <ele>193</ele>
        <time>2020-02-04T14:38:06Z</time>
      </trkpt>
      <trkpt lat="43.52821" lon="5.46304">
        <ele>195</ele>
        <time>2020-02-04T14:38:13Z</time>
      </trkpt>
      <trkpt lat="43.52812" lon="5.46307">
        <ele>196</ele>
        <time>2020-02-04T14:38:20Z</time>
      </trkpt>
      <trkpt lat="43.52803" lon="5.4631">
        <ele>196</ele>
        <time>2020-02-04T14:38:27Z</time>
      </trkpt>
      <trkpt lat="43.52794" lon="5.46313">
        <ele>195</ele>
        <time>2020-02-04T14:38:34Z</time>
      </trkpt>
      <trkpt lat="43.52785" lon="5.4632">
        <ele>195</ele>
        <time>2020-02-04T14:38:43Z</time>
      </trkpt>
      <trkpt lat="43.52776" lon="5.46324">
        <ele>195</ele>
        <time>2020-02-04T14:38:54Z</time>
      </trkpt>
      <trkpt lat="43.52767" lon="5.46328">
        <ele>195</ele>
        <time>2020-02-04T14:39:04Z</time>
      </trkpt>
      <trkpt lat="43.52758" lon="5.46332">
        <ele>194</ele>
        <time>2020-02-04T14:39:15Z</time>
      </trkpt>
      <trkpt lat="43.52749" lon="5.46333">
        <ele>192</ele>
        <time>2020-02-04T14:39:26Z</time>
      </trkpt>
      <trkpt lat="43.52739" lon="5.46332">
        <ele>187</ele>
        <time>2020-02-04T14:40:31Z</time>
      </trkpt>
      <trkpt lat="43.5273" lon="5.46334">
        <ele>184</ele>
        <time>2020-02-04T14:40:50Z</time>
      </trkpt>
      <trkpt lat="43.5272" lon="5.46334">
        <ele>181</ele>
        <time>2020-02-04T14:41:04Z</time>
      </trkpt>
      <trkpt lat="43.52711" lon="5.46332">
        <ele>182</ele>
        <time>2020-02-04T14:41:19Z</time>
      </trkpt>
      <trkpt lat="43.52702" lon="5.46327">
        <ele>184</ele>
        <time>2020-02-04T14:41:31Z</time>
      </trkpt>
      <trkpt lat="43.52693" lon="5.46326">
        <ele>186</ele>
        <time>2020-02-04T14:41:41Z</time>
      </trkpt>
      <trkpt lat="43.52686" lon="5.46335">
        <ele>186</ele>
        <time>2020-02-04T14:41:54Z</time>
      </trkpt>
      <trkpt lat="43.52685" lon="5.46348">
        <ele>183</ele>
        <time>2020-02-04T14:43:49Z</time>
      </trkpt>
      <trkpt lat="43.52675" lon="5.4635">
        <ele>175</ele>
        <time>2020-02-04T14:44:44Z</time>
      </trkpt>
      <trkpt lat="43.52667" lon="5.46357">
        <ele>175</ele>
        <time>2020-02-04T14:44:58Z</time>
      </trkpt>
      <trkpt lat="43.52664" lon="5.46369">
        <ele>176</ele>
        <time>2020-02-04T14:45:13Z</time>
      </trkpt>
      <trkpt lat="43.52658" lon="5.46381">
        <ele>178</ele>
        <time>2020-02-04T14:45:26Z</time>
      </trkpt>
      <trkpt lat="43.52652" lon="5.46391">
        <ele>179</ele>
        <time>2020-02-04T14:45:37Z</time>
      </trkpt>
      <trkpt lat="43.52645" lon="5.46401">
        <ele>179</ele>
        <time>2020-02-04T14:45:46Z</time>
      </trkpt>
      <trkpt lat="43.52639" lon="5.46411">
        <ele>179</ele>
        <time>2020-02-04T14:45:56Z</time>
      </trkpt>
      <trkpt lat="43.52632" lon="5.4642">
        <ele>179</ele>
        <time>2020-02-04T14:46:09Z</time>
      </trkpt>
      <trkpt lat="43.52623" lon="5.46425">
        <ele>180</ele>
        <time>2020-02-04T14:46:19Z</time>
      </trkpt>
      <trkpt lat="43.52616" lon="5.46434">
        <ele>181</ele>
        <time>2020-02-04T14:46:28Z</time>
      </trkpt>
      <trkpt lat="43.5261" lon="5.46445">
        <ele>184</ele>
        <time>2020-02-04T14:46:38Z</time>
      </trkpt>
      <trkpt lat="43.52603" lon="5.46453">
        <ele>184</ele>
        <time>2020-02-04T14:47:08Z</time>
      </trkpt>
      <trkpt lat="43.52594" lon="5.46455">
        <ele>182</ele>
        <time>2020-02-04T14:47:21Z</time>
      </trkpt>
      <trkpt lat="43.52584" lon="5.46453">
        <ele>180</ele>
        <time>2020-02-04T14:47:32Z</time>
      </trkpt>
      <trkpt lat="43.52575" lon="5.46456">
        <ele>181</ele>
        <time>2020-02-04T14:47:44Z</time>
      </trkpt>
      <trkpt lat="43.52566" lon="5.46459">
        <ele>183</ele>
        <time>2020-02-04T14:47:54Z</time>
      </trkpt>
      <trkpt lat="43.52557" lon="5.46462">
        <ele>185</ele>
        <time>2020-02-04T14:48:08Z</time>
      </trkpt>
      <trkpt lat="43.52548" lon="5.46468">
        <ele>186</ele>
        <time>2020-02-04T14:48:23Z</time>
      </trkpt>
      <trkpt lat="43.52539" lon="5.46474">
        <ele>187</ele>
        <time>2020-02-04T14:48:32Z</time>
      </trkpt>
      <trkpt lat="43.5253" lon="5.46479">
        <ele>186</ele>
        <time>2020-02-04T14:48:41Z</time>
      </trkpt>
      <trkpt lat="43.52523" lon="5.46487">
        <ele>184</ele>
        <time>2020-02-04T14:48:49Z</time>
      </trkpt>
      <trkpt lat="43.52514" lon="5.46493">
        <ele>184</ele>
        <time>2020-02-04T14:48:58Z</time>
      </trkpt>
      <trkpt lat="43.52505" lon="5.46499">
        <ele>186</ele>
        <time>2020-02-04T14:49:08Z</time>
      </trkpt>
      <trkpt lat="43.52497" lon="5.46506">
        <ele>186</ele>
        <time>2020-02-04T14:49:21Z</time>
      </trkpt>
      <trkpt lat="43.52489" lon="5.46511">
        <ele>185</ele>
        <time>2020-02-04T14:49:31Z</time>
      </trkpt>
      <trkpt lat="43.52481" lon="5.4652">
        <ele>183</ele>
        <time>2020-02-04T14:49:43Z</time>
      </trkpt>
      <trkpt lat="43.52473" lon="5.46528">
        <ele>182</ele>
        <time>2020-02-04T14:49:54Z</time>
      </trkpt>
      <trkpt lat="43.52465" lon="5.46535">
        <ele>182</ele>
        <time>2020-02-04T14:50:03Z</time>
      </trkpt>
      <trkpt lat="43.52458" lon="5.46544">
        <ele>184</ele>
        <time>2020-02-04T14:50:15Z</time>
      </trkpt>
      <trkpt lat="43.5245" lon="5.46547">
        <ele>183</ele>
        <time>2020-02-04T14:50:25Z</time>
      </trkpt>
      <trkpt lat="43.52441" lon="5.46556">
        <ele>182</ele>
        <time>2020-02-04T14:50:35Z</time>
      </trkpt>
      <trkpt lat="43.52432" lon="5.46562">
        <ele>181</ele>
        <time>2020-02-04T14:50:44Z</time>
      </trkpt>
      <trkpt lat="43.52424" lon="5.46566">
        <ele>179</ele>
        <time>2020-02-04T14:50:53Z</time>
      </trkpt>
      <trkpt lat="43.52415" lon="5.46571">
        <ele>178</ele>
        <time>2020-02-04T14:51:02Z</time>
      </trkpt>
      <trkpt lat="43.52406" lon="5.46577">
        <ele>178</ele>
        <time>2020-02-04T14:51:13Z</time>
      </trkpt>
      <trkpt lat="43.52397" lon="5.46583">
        <ele>178</ele>
        <time>2020-02-04T14:51:24Z</time>
      </trkpt>
      <trkpt lat="43.52389" lon="5.4659">
        <ele>176</ele>
        <time>2020-02-04T14:51:34Z</time>
      </trkpt>
      <trkpt lat="43.52379" lon="5.46593">
        <ele>175</ele>
        <time>2020-02-04T14:51:42Z</time>
      </trkpt>
      <trkpt lat="43.5237" lon="5.46595">
        <ele>177</ele>
        <time>2020-02-04T14:51:52Z</time>
      </trkpt>
      <trkpt lat="43.52361" lon="5.46595">
        <ele>176</ele>
        <time>2020-02-04T14:52:01Z</time>
      </trkpt>
      <trkpt lat="43.52352" lon="5.46592">
        <ele>178</ele>
        <time>2020-02-04T14:52:10Z</time>
      </trkpt>
      <trkpt lat="43.52343" lon="5.46588">
        <ele>178</ele>
        <time>2020-02-04T14:52:18Z</time>
      </trkpt>
      <trkpt lat="43.52336" lon="5.4658">
        <ele>178</ele>
        <time>2020-02-04T14:52:29Z</time>
      </trkpt>
      <trkpt lat="43.52327" lon="5.46575">
        <ele>177</ele>
        <time>2020-02-04T14:52:39Z</time>
      </trkpt>
      <trkpt lat="43.52317" lon="5.46572">
        <ele>174</ele>
        <time>2020-02-04T14:52:53Z</time>
      </trkpt>
      <trkpt lat="43.52309" lon="5.46566">
        <ele>172</ele>
        <time>2020-02-04T14:53:00Z</time>
      </trkpt>
      <trkpt lat="43.52302" lon="5.46558">
        <ele>172</ele>
        <time>2020-02-04T14:53:11Z</time>
      </trkpt>
      <trkpt lat="43.52297" lon="5.46547">
        <ele>170</ele>
        <time>2020-02-04T14:53:20Z</time>
      </trkpt>
      <trkpt lat="43.5229" lon="5.46537">
        <ele>170</ele>
        <time>2020-02-04T14:53:29Z</time>
      </trkpt>
      <trkpt lat="43.52284" lon="5.46526">
        <ele>170</ele>
        <time>2020-02-04T14:53:41Z</time>
      </trkpt>
      <trkpt lat="43.52275" lon="5.46524">
        <ele>168</ele>
        <time>2020-02-04T14:53:51Z</time>
      </trkpt>
      <trkpt lat="43.52265" lon="5.46524">
        <ele>167</ele>
        <time>2020-02-04T14:54:11Z</time>
      </trkpt>
      <trkpt lat="43.52256" lon="5.46532">
        <ele>170</ele>
        <time>2020-02-04T14:54:28Z</time>
      </trkpt>
      <trkpt lat="43.52247" lon="5.4654">
        <ele>170</ele>
        <time>2020-02-04T14:54:46Z</time>
      </trkpt>
      <trkpt lat="43.52239" lon="5.46548">
        <ele>171</ele>
        <time>2020-02-04T14:54:54Z</time>
      </trkpt>
      <trkpt lat="43.52232" lon="5.46557">
        <ele>170</ele>
        <time>2020-02-04T14:55:01Z</time>
      </trkpt>
      <trkpt lat="43.52227" lon="5.46568">
        <ele>172</ele>
        <time>2020-02-04T14:55:11Z</time>
      </trkpt>
      <trkpt lat="43.52222" lon="5.4658">
        <ele>169</ele>
        <time>2020-02-04T14:55:33Z</time>
      </trkpt>
      <trkpt lat="43.52214" lon="5.46588">
        <ele>171</ele>
        <time>2020-02-04T14:55:44Z</time>
      </trkpt>
      <trkpt lat="43.52218" lon="5.46599">
        <ele>169</ele>
        <time>2020-02-04T14:56:18Z</time>
      </trkpt>
      <trkpt lat="43.52225" lon="5.46609">
        <ele>168</ele>
        <time>2020-02-04T14:56:27Z</time>
      </trkpt>
      <trkpt lat="43.52229" lon="5.46621">
        <ele>168</ele>
        <time>2020-02-04T14:56:39Z</time>
      </trkpt>
      <trkpt lat="43.52225" lon="5.46633">
        <ele>171</ele>
        <time>2020-02-04T14:56:53Z</time>
      </trkpt>
      <trkpt lat="43.52216" lon="5.46638">
        <ele>170</ele>
        <time>2020-02-04T14:57:03Z</time>
      </trkpt>
      <trkpt lat="43.52208" lon="5.46644">
        <ele>171</ele>
        <time>2020-02-04T14:57:15Z</time>
      </trkpt>
      <trkpt lat="43.52204" lon="5.46655">
        <ele>171</ele>
        <time>2020-02-04T14:57:31Z</time>
      </trkpt>
      <trkpt lat="43.52205" lon="5.46669">
        <ele>173</ele>
        <time>2020-02-04T14:57:42Z</time>
      </trkpt>
      <trkpt lat="43.5221" lon="5.4668">
        <ele>169</ele>
        <time>2020-02-04T14:57:57Z</time>
      </trkpt>
      <trkpt lat="43.52207" lon="5.46693">
        <ele>168</ele>
        <time>2020-02-04T14:58:08Z</time>
      </trkpt>
      <trkpt lat="43.52202" lon="5.46703">
        <ele>169</ele>
        <time>2020-02-04T14:58:20Z</time>
      </trkpt>
      <trkpt lat="43.52196" lon="5.46712">
        <ele>172</ele>
        <time>2020-02-04T14:58:28Z</time>
      </trkpt>
      <trkpt lat="43.52189" lon="5.4672">
        <ele>175</ele>
        <time>2020-02-04T14:58:37Z</time>
      </trkpt>
      <trkpt lat="43.52182" lon="5.46729">
        <ele>176</ele>
        <time>2020-02-04T14:58:49Z</time>
      </trkpt>
      <trkpt lat="43.52175" lon="5.46738">
        <ele>175</ele>
        <time>2020-02-04T14:59:00Z</time>
      </trkpt>
      <trkpt lat="43.52168" lon="5.46747">
        <ele>178</ele>
        <time>2020-02-04T14:59:11Z</time>
      </trkpt>
      <trkpt lat="43.52161" lon="5.46756">
        <ele>178</ele>
        <time>2020-02-04T14:59:23Z</time>
      </trkpt>
      <trkpt lat="43.52153" lon="5.46762">
        <ele>178</ele>
        <time>2020-02-04T14:59:32Z</time>
      </trkpt>
      <trkpt lat="43.52143" lon="5.46762">
        <ele>177</ele>
        <time>2020-02-04T14:59:41Z</time>
      </trkpt>
      <trkpt lat="43.52133" lon="5.46759">
        <ele>177</ele>
        <time>2020-02-04T14:59:54Z</time>
      </trkpt>
      <trkpt lat="43.52125" lon="5.46754">
        <ele>176</ele>
        <time>2020-02-04T15:00:03Z</time>
      </trkpt>
      <trkpt lat="43.52115" lon="5.46751">
        <ele>175</ele>
        <time>2020-02-04T15:00:15Z</time>
      </trkpt>
      <trkpt lat="43.52106" lon="5.46747">
        <ele>178</ele>
        <time>2020-02-04T15:00:23Z</time>
      </trkpt>
      <trkpt lat="43.52098" lon="5.46742">
        <ele>175</ele>
        <time>2020-02-04T15:00:34Z</time>
      </trkpt>
      <trkpt lat="43.5209" lon="5.46734">
        <ele>171</ele>
        <time>2020-02-04T15:00:46Z</time>
      </trkpt>
      <trkpt lat="43.52083" lon="5.46723">
        <ele>171</ele>
        <time>2020-02-04T15:01:18Z</time>
      </trkpt>
      <trkpt lat="43.52088" lon="5.46711">
        <ele>171</ele>
        <time>2020-02-04T15:01:49Z</time>
      </trkpt>
      <trkpt lat="43.52088" lon="5.46698">
        <ele>168</ele>
        <time>2020-02-04T15:01:57Z</time>
      </trkpt>
      <trkpt lat="43.52081" lon="5.46686">
        <ele>164</ele>
        <time>2020-02-04T15:02:09Z</time>
      </trkpt>
      <trkpt lat="43.52076" lon="5.46675">
        <ele>164</ele>
        <time>2020-02-04T15:02:23Z</time>
      </trkpt>
      <trkpt lat="43.52068" lon="5.46668">
        <ele>165</ele>
        <time>2020-02-04T15:02:32Z</time>
      </trkpt>
      <trkpt lat="43.5206" lon="5.46675">
        <ele>170</ele>
        <time>2020-02-04T15:02:45Z</time>
      </trkpt>
    </trkseg>
  </trk>
</gpx>